Saab AJS 37 Viggen from Swedish Air Force at Volkel.
 Regi:SE-DXN  LARGER
 MSN Year:37098 1977
 Date of picture:2019-06-13 12:48
 Discription:Swedish Air Force Historic Flight, stationed at Linkoping.
 Position:024R
 Flight: ARR LPI Linkoping City Sweden
 Logs: 2019/06/13 10:34 SEDXN SEDXN - SE-DXN a/c registered in Sweden Business Fligh SB37
 Metar SA 13/06/2019 12:25 METAR EHVK 131225Z AUTO 20016KT 150V250 9999 FEW088 BKN093 OVC098 19/09 Q1011 BLU 19015G25KT 9999 SCT036=
 Hits: 26 ID: 2341

Debriefing: Photographed movements of Airports in NW-Europe.
The images of our site attendant is in authorisation from Queen of Sky.
Copying of images of this site have been prohibited in which manner without the authorisation of the photographer.
In behalf of the crew :"Thank you visiting us" - Contact
Factsheets Saab, AJS 37 Viggen, Swedish Air Force, made by De Plane! © 2006 - 2022 All rights reserved


.